Time;durP1;ratioP1;P1;durP2;ratioP2;P2;SDS_P1;SDS_P2;PMS_P1;PMS_P2;Temp;Humidity;BMP_temperature;BMP_pressure;BME280_temperature;BME280_humidity;BME280_pressure;Samples;Min_cycle;Max_cycle;Signal;HPM_P1;HPM_P2
2023/01/22 00:00:40;;;;;;;0.60;0.40;;;;;;;13.42;48.96;94906.38;4990115;28;20497;-71
2023/01/22 00:03:07;;;;;;;0.77;0.77;;;;;;;13.52;48.79;94919.50;4990042;28;20441;-72
2023/01/22 00:05:35;;;;;;;0.47;0.47;;;;;;;13.33;49.28;94921.16;4990239;28;20469;-72
2023/01/22 00:08:02;;;;;;;0.17;0.17;;;;;;;13.14;49.08;94918.34;4991187;28;20444;-71
2023/01/22 00:10:31;;;;;;;0.43;0.43;;;;;;;13.38;49.21;94935.09;4990316;28;20516;-69
2023/01/22 00:12:58;;;;;;;0.63;0.63;;;;;;;13.10;49.70;94933.91;4994677;28;20856;-72
2023/01/22 00:15:25;;;;;;;0.57;0.37;;;;;;;13.50;49.75;94935.56;4990025;28;20520;-69
2023/01/22 00:17:53;;;;;;;0.20;0.20;;;;;;;13.43;49.60;94929.78;4988890;28;20516;-71
2023/01/22 00:20:20;;;;;;;1.07;1.07;;;;;;;13.36;49.53;94920.66;4989691;28;20536;-72
2023/01/22 00:22:46;;;;;;;0.67;0.63;;;;;;;13.58;49.41;94929.72;4990642;28;20449;-72
2023/01/22 00:25:13;;;;;;;3.97;0.90;;;;;;;13.49;49.75;94925.28;4988941;28;20454;-71
2023/01/22 00:27:40;;;;;;;2.87;2.43;;;;;;;13.70;49.39;94932.00;4990312;28;20688;-72
2023/01/22 00:30:08;;;;;;;1.03;1.03;;;;;;;13.54;49.98;94925.28;4986657;28;20454;-72
2023/01/22 00:32:35;;;;;;;1.90;1.20;;;;;;;13.62;49.80;94929.94;4988850;28;20454;-72
2023/01/22 00:35:02;;;;;;;0.67;0.60;;;;;;;13.68;49.74;94923.59;4989362;28;20799;-71
2023/01/22 00:37:28;;;;;;;3.10;1.23;;;;;;;13.65;50.25;94914.38;4990066;28;20449;-72
2023/01/22 00:39:55;;;;;;;0.60;0.60;;;;;;;13.70;50.43;94918.84;4988931;28;20524;-72
2023/01/22 00:42:22;;;;;;;6.60;2.93;;;;;;;13.76;50.18;94915.09;4989551;28;20442;-72
2023/01/22 00:44:49;;;;;;;0.20;0.20;;;;;;;13.79;49.72;94919.84;4970588;28;20956;-71
2023/01/22 00:47:16;;;;;;;0.17;0.17;;;;;;;12.34;54.14;94945.63;4981414;28;20830;-69
2023/01/22 00:49:43;;;;;;;1.00;1.00;;;;;;;12.19;54.51;94943.00;4989004;28;21099;-72
2023/01/22 00:52:10;;;;;;;3.73;2.57;;;;;;;12.14;54.75;94940.41;4990038;28;20540;-72
2023/01/22 00:54:36;;;;;;;0.67;0.67;;;;;;;12.45;54.15;94933.25;4988879;28;20438;-71
2023/01/22 00:57:04;;;;;;;1.33;1.23;;;;;;;12.55;53.64;94939.31;4987560;28;20512;-70
2023/01/22 00:59:31;;;;;;;0.20;0.20;;;;;;;12.92;52.22;94944.97;4989203;28;20540;-72
2023/01/22 01:01:58;;;;;;;0.50;0.50;;;;;;;12.89;52.66;94948.16;4987943;28;20557;-70
2023/01/22 01:04:25;;;;;;;2.00;1.17;;;;;;;12.90;51.87;94954.97;4981463;28;20478;-71
2023/01/22 01:06:54;;;;;;;0.40;0.40;;;;;;;13.12;51.63;94958.09;4970028;28;20809;-71
2023/01/22 01:09:21;;;;;;;0.20;0.20;;;;;;;13.26;51.44;94970.69;4989539;28;20500;-71
2023/01/22 01:11:48;;;;;;;0.67;0.67;;;;;;;13.33;50.75;94958.00;4989514;28;20433;-71
2023/01/22 01:14:16;;;;;;;1.50;0.93;;;;;;;13.46;50.93;94978.47;4979962;28;20973;-72
2023/01/22 01:16:43;;;;;;;0.60;0.60;;;;;;;13.53;50.07;94968.44;4971142;28;20465;-71
2023/01/22 01:19:11;;;;;;;1.23;1.07;;;;;;;13.55;50.82;94961.06;4988517;28;20822;-72
2023/01/22 01:21:38;;;;;;;1.47;1.37;;;;;;;13.50;50.86;94961.09;4989052;28;20548;-72
2023/01/22 01:24:05;;;;;;;0.63;0.53;;;;;;;13.54;49.97;94964.75;4987153;28;20453;-73
2023/01/22 01:26:33;;;;;;;10.40;1.70;;;;;;;13.46;50.69;94958.22;4987802;28;20460;-70
2023/01/22 01:29:03;;;;;;;1.47;1.37;;;;;;;13.57;50.19;94964.22;4988439;28;20445;-72
2023/01/22 01:31:30;;;;;;;1.97;1.80;;;;;;;13.57;50.52;94969.47;4987943;28;20492;-70
2023/01/22 01:33:58;;;;;;;0.80;0.80;;;;;;;12.38;53.72;94982.69;4988256;28;21196;-71
2023/01/22 01:36:26;;;;;;;0.00;0.00;;;;;;;12.62;53.06;95000.28;4990963;28;20957;-71
2023/01/22 01:39:13;;;;;;;1.10;0.97;;;;;;;13.18;51.42;94988.59;4992917;28;20488;-69
2023/01/22 01:41:41;;;;;;;4.37;1.27;;;;;;;13.25;51.31;94995.44;4991048;28;20508;-71
2023/01/22 01:44:16;;;;;;;0.90;0.90;;;;;;;13.37;50.99;94994.06;4991878;28;20464;-73
2023/01/22 01:47:06;;;;;;;2.27;2.03;;;;;;;13.47;51.22;95001.91;4978824;28;20453;-72
2023/01/22 01:49:43;;;;;;;2.73;1.50;;;;;;;13.67;49.85;94995.75;5002056;28;20447;-72
2023/01/22 01:52:11;;;;;;;0.97;0.70;;;;;;;13.58;49.71;94978.94;4986048;28;20453;-73
2023/01/22 01:54:41;;;;;;;0.30;0.30;;;;;;;13.55;50.47;94997.91;4993207;28;20434;-72
2023/01/22 01:57:14;;;;;;;1.13;1.13;;;;;;;13.57;50.07;95003.69;4993441;28;20499;-72
2023/01/22 01:59:41;;;;;;;0.20;0.20;;;;;;;13.62;50.23;95003.66;4991529;28;20452;-74
2023/01/22 02:02:09;;;;;;;2.03;1.53;;;;;;;13.64;50.56;94996.28;4992967;28;21089;-73
2023/01/22 02:04:36;;;;;;;0.70;0.70;;;;;;;13.45;50.95;94993.47;4992555;28;20450;-72
2023/01/22 02:07:04;;;;;;;0.93;0.70;;;;;;;13.64;50.39;94988.38;4991447;28;20468;-71
2023/01/22 02:09:32;;;;;;;3.00;1.30;;;;;;;13.72;50.07;94990.47;4981604;28;20454;-73
2023/01/22 02:12:00;;;;;;;1.80;1.63;;;;;;;13.66;50.47;94976.53;4989018;28;20453;-73
2023/01/22 02:14:38;;;;;;;4.00;1.37;;;;;;;13.78;50.22;94992.78;4992939;28;20441;-72
2023/01/22 02:17:23;;;;;;;4.07;2.37;;;;;;;13.56;50.58;94989.75;4992550;28;20455;-73
2023/01/22 02:19:50;;;;;;;3.27;1.77;;;;;;;13.61;50.59;94988.94;4992387;28;20446;-70
2023/01/22 02:22:29;;;;;;;0.60;0.60;;;;;;;13.61;50.74;94996.84;4992420;28;20449;-72
2023/01/22 02:24:58;;;;;;;1.93;1.10;;;;;;;13.42;50.78;95003.75;4981257;28;20526;-74
2023/01/22 02:27:26;;;;;;;1.03;1.03;;;;;;;13.14;51.42;95013.88;4991341;28;20519;-74
2023/01/22 02:29:53;;;;;;;0.97;0.87;;;;;;;13.15;51.26;95015.47;4990345;28;20481;-72
2023/01/22 02:32:20;;;;;;;1.70;1.60;;;;;;;12.78;51.99;95009.72;4990980;28;21054;-73
2023/01/22 02:34:47;;;;;;;2.50;0.87;;;;;;;12.40;53.93;95004.22;4990460;28;20449;-71
2023/01/22 02:37:14;;;;;;;1.37;1.07;;;;;;;12.67;53.33;95002.09;4992376;28;20445;-70
2023/01/22 02:39:41;;;;;;;1.53;1.03;;;;;;;12.84;52.04;94992.88;4991501;28;20433;-74
2023/01/22 02:42:09;;;;;;;0.67;0.57;;;;;;;12.95;52.02;95001.53;4990823;28;20488;-71
2023/01/22 02:44:37;;;;;;;0.20;0.20;;;;;;;12.94;51.48;95008.63;4977550;28;20489;-71
2023/01/22 02:47:04;;;;;;;3.40;1.60;;;;;;;13.03;51.35;94995.75;4991524;28;20442;-67
2023/01/22 02:49:31;;;;;;;0.30;0.30;;;;;;;12.99;51.55;94999.94;4974140;28;20821;-71
2023/01/22 02:51:59;;;;;;;0.13;0.13;;;;;;;12.83;51.91;95007.06;4971639;28;20453;-69
2023/01/22 02:54:27;;;;;;;0.80;0.80;;;;;;;13.01;50.83;95011.00;4987175;28;20945;-69
2023/01/22 02:56:55;;;;;;;0.10;0.10;;;;;;;12.96;51.55;95011.78;4983660;28;20806;-72
2023/01/22 02:59:22;;;;;;;2.67;1.70;;;;;;;12.67;52.15;95020.50;4971819;28;20537;-71
2023/01/22 03:01:50;;;;;;;5.63;1.70;;;;;;;12.40;52.61;95023.41;4970947;28;20606;-72
2023/01/22 03:04:17;;;;;;;2.60;1.00;;;;;;;12.75;51.67;95023.41;4987678;28;20478;-71
2023/01/22 03:07:04;;;;;;;0.50;0.50;;;;;;;12.74;52.43;95019.19;4970925;28;20454;-70
2023/01/22 03:09:31;;;;;;;1.10;1.00;;;;;;;12.57;52.24;95020.53;4990346;28;20700;-72
2023/01/22 03:11:58;;;;;;;0.10;0.10;;;;;;;12.38;52.80;95020.25;4991443;28;20438;-72
2023/01/22 03:22:47;;;;;;;0.10;0.10;;;;;;;12.65;51.98;95019.97;4977705;28;20450;-72
2023/01/22 03:25:14;;;;;;;1.87;1.10;;;;;;;12.30;52.76;95033.91;4988490;28;20437;-73
2023/01/22 03:28:07;;;;;;;0.90;0.90;;;;;;;12.33;52.59;95033.41;4979601;28;20466;-70
2023/01/22 03:30:29;;;;;;;0.20;0.20;;;;;;;12.12;53.63;95029.16;4993471;28;20848;-71
2023/01/22 03:32:56;;;;;;;0.60;0.60;;;;;;;12.38;52.46;95011.59;4989913;28;20469;-69
2023/01/22 03:35:24;;;;;;;1.50;1.33;;;;;;;12.25;52.10;95005.03;4990801;28;20477;-73
2023/01/22 03:38:11;;;;;;;0.87;0.87;;;;;;;12.60;51.91;95012.09;4989123;28;20448;-72
2023/01/22 03:40:38;;;;;;;0.53;0.53;;;;;;;12.75;51.11;94991.06;4989535;28;20496;-73
2023/01/22 03:43:05;;;;;;;1.13;1.03;;;;;;;12.88;51.29;95003.66;4989826;28;20458;-72
2023/01/22 03:45:34;;;;;;;1.07;1.03;;;;;;;12.68;51.75;95019.47;4990703;28;20450;-72
2023/01/22 03:48:02;;;;;;;0.17;0.17;;;;;;;12.65;51.52;95020.78;4964588;28;20507;-71
2023/01/22 03:50:35;;;;;;;0.00;0.00;;;;;;;12.72;51.28;95021.28;4987549;28;20880;-70
2023/01/22 03:53:03;;;;;;;0.33;0.33;;;;;;;12.77;50.75;95023.91;4984529;28;21072;-71
2023/01/22 03:55:31;;;;;;;0.10;0.10;;;;;;;12.77;50.76;95017.88;4971218;28;20459;-71
2023/01/22 03:57:58;;;;;;;0.40;0.40;;;;;;;12.42;51.86;95023.94;4989853;28;20442;-73
2023/01/22 04:00:25;;;;;;;0.20;0.20;;;;;;;12.59;51.11;95019.19;4988795;28;20445;-71
2023/01/22 04:02:52;;;;;;;0.00;0.00;;;;;;;12.34;51.41;95034.97;4982037;28;20438;-71
2023/01/22 04:05:24;;;;;;;0.07;0.07;;;;;;;11.50;53.31;95031.88;4971529;28;20981;-72
2023/01/22 04:07:51;;;;;;;0.20;0.20;;;;;;;11.76;52.74;95035.41;4989053;28;20445;-72
2023/01/22 04:10:22;;;;;;;0.00;0.00;;;;;;;11.73;53.06;95033.31;4988400;28;21002;-71
2023/01/22 04:12:49;;;;;;;0.17;0.17;;;;;;;11.75;52.83;95041.72;4988561;28;20860;-71
2023/01/22 04:15:19;;;;;;;0.10;0.10;;;;;;;11.90;52.14;95047.00;4971021;28;20502;-71
2023/01/22 04:17:48;;;;;;;0.10;0.10;;;;;;;12.34;50.83;95039.44;4969454;28;20206;-71
2023/01/22 04:20:33;;;;;;;0.10;0.10;;;;;;;12.28;50.67;95045.75;4969411;28;20489;-72
2023/01/22 04:23:28;;;;;;;0.13;0.13;;;;;;;12.26;50.84;95053.91;4986967;28;20451;-73
2023/01/22 04:25:56;;;;;;;0.70;0.70;;;;;;;12.40;50.24;95054.16;4988032;28;20465;-72
2023/01/22 04:28:24;;;;;;;0.50;0.50;;;;;;;12.30;50.71;95054.94;4987868;28;20213;-69
2023/01/22 04:30:54;;;;;;;0.20;0.20;;;;;;;12.55;50.10;95051.53;4989011;28;20477;-70
2023/01/22 04:33:35;;;;;;;0.10;0.10;;;;;;;12.54;49.86;95053.38;4990660;28;20485;-71
2023/01/22 04:36:09;;;;;;;0.00;0.00;;;;;;;12.60;49.90;95048.91;4992039;28;20445;-72
2023/01/22 04:38:36;;;;;;;0.83;0.73;;;;;;;12.63;49.42;95064.13;4989806;28;20446;-70
2023/01/22 04:41:03;;;;;;;0.00;0.00;;;;;;;12.35;50.20;95062.84;4988355;28;20489;-73
2023/01/22 04:43:30;;;;;;;0.00;0.00;;;;;;;12.13;50.96;95076.19;4988880;28;20452;-73
2023/01/22 04:45:56;;;;;;;0.20;0.20;;;;;;;12.33;50.25;95075.44;4975663;28;20443;-71
2023/01/22 04:48:28;;;;;;;0.00;0.00;;;;;;;12.34;50.25;95082.28;4988513;28;20458;-74
2023/01/22 04:50:55;;;;;;;0.30;0.30;;;;;;;12.58;50.28;95088.59;4975081;28;20563;-72
2023/01/22 04:53:25;;;;;;;0.10;0.10;;;;;;;12.58;49.76;95093.84;4988670;28;20273;-73
2023/01/22 04:55:51;;;;;;;0.50;0.27;;;;;;;12.36;49.91;95090.69;4987881;28;20857;-70
2023/01/22 04:58:19;;;;;;;0.53;0.33;;;;;;;12.32;50.14;95099.38;4978878;28;20451;-71
2023/01/22 05:00:47;;;;;;;0.07;0.07;;;;;;;12.31;50.09;95098.56;4984443;28;20478;-71
2023/01/22 05:03:14;;;;;;;0.00;0.00;;;;;;;12.28;50.59;95103.56;4969503;28;20450;-71
2023/01/22 05:05:41;;;;;;;1.27;1.17;;;;;;;12.33;50.56;95109.59;4988653;28;20548;-72
2023/01/22 05:08:07;;;;;;;61.73;2.13;;;;;;;12.37;49.92;95108.00;4977962;28;20457;-72
2023/01/22 05:10:35;;;;;;;0.73;0.70;;;;;;;12.48;50.10;95119.34;4969963;28;20438;-73
2023/01/22 05:13:05;;;;;;;0.00;0.00;;;;;;;12.60;49.29;95120.66;4973427;28;20517;-71
2023/01/22 05:15:34;;;;;;;1.30;0.87;;;;;;;12.57;49.81;95123.81;4972702;28;20550;-72
2023/01/22 05:18:08;;;;;;;0.00;0.00;;;;;;;12.57;49.96;95123.81;4973826;28;20536;-72
2023/01/22 05:20:38;;;;;;;3.60;2.00;;;;;;;12.58;49.66;95125.41;4984578;28;20446;-72
2023/01/22 05:23:06;;;;;;;0.37;0.37;;;;;;;12.49;49.95;95126.97;4987642;28;20480;-71
2023/01/22 05:25:33;;;;;;;1.50;0.77;;;;;;;12.51;49.68;95124.06;4986042;28;20461;-74
2023/01/22 05:28:02;;;;;;;0.30;0.30;;;;;;;12.39;49.99;95137.44;4979555;28;20819;-73
2023/01/22 05:30:42;;;;;;;0.10;0.10;;;;;;;12.39;50.28;95147.97;4981621;28;21174;-71
2023/01/22 05:33:36;;;;;;;0.00;0.00;;;;;;;12.15;50.49;95139.00;5000059;28;21022;-70
2023/01/22 05:36:06;;;;;;;0.00;0.00;;;;;;;12.24;50.54;95150.56;4990465;28;20449;-70
2023/01/22 05:38:34;;;;;;;2.13;1.40;;;;;;;12.28;50.03;95143.72;4992398;28;20453;-74
2023/01/22 05:41:01;;;;;;;0.13;0.13;;;;;;;12.34;49.43;95166.34;4979195;28;20522;-74
2023/01/22 05:43:36;;;;;;;0.17;0.17;;;;;;;12.23;50.12;95173.44;4989615;28;20447;-72
2023/01/22 05:46:06;;;;;;;0.83;0.67;;;;;;;12.16;50.15;95174.72;4974526;28;20446;-75
2023/01/22 05:48:39;;;;;;;0.23;0.23;;;;;;;12.30;49.75;95181.06;4993483;28;20449;-73
2023/01/22 05:51:13;;;;;;;0.50;0.50;;;;;;;12.27;50.77;95186.84;4992749;28;20481;-70
2023/01/22 05:53:40;;;;;;;0.00;0.00;;;;;;;12.21;50.43;95187.84;4996142;28;20525;-72
2023/01/22 05:56:07;;;;;;;0.40;0.40;;;;;;;12.19;50.54;95195.19;4995748;28;20452;-73
2023/01/22 05:58:37;;;;;;;0.10;0.10;;;;;;;12.36;50.38;95198.41;4996297;28;20455;-70
2023/01/22 06:01:04;;;;;;;5.43;2.13;;;;;;;12.08;50.41;95183.06;4996709;28;20465;-74
2023/01/22 06:03:38;;;;;;;0.97;0.93;;;;;;;12.31;50.52;95192.34;4983392;28;20477;-72
2023/01/22 06:06:09;;;;;;;0.87;0.87;;;;;;;12.57;49.87;95202.66;4993890;28;20948;-72
2023/01/22 06:08:37;;;;;;;0.30;0.30;;;;;;;12.46;49.80;95206.34;4992821;28;20446;-70
2023/01/22 06:11:08;;;;;;;0.40;0.40;;;;;;;12.23;51.10;95214.66;4979093;28;20457;-73
2023/01/22 06:13:37;;;;;;;0.47;0.47;;;;;;;12.49;49.93;95211.06;4995804;28;20524;-70
2023/01/22 06:16:13;;;;;;;0.37;0.33;;;;;;;12.43;49.81;95217.34;4980098;28;20481;-71
2023/01/22 06:19:11;;;;;;;0.23;0.23;;;;;;;12.23;50.67;95222.53;4990216;28;20453;-69
2023/01/22 06:21:49;;;;;;;0.37;0.37;;;;;;;12.42;50.20;95221.06;4990591;28;20830;-70
2023/01/22 06:24:17;;;;;;;0.10;0.10;;;;;;;12.35;50.03;95230.22;4991100;28;20457;-70
2023/01/22 06:26:45;;;;;;;0.10;0.10;;;;;;;12.54;49.93;95220.81;4992358;28;20445;-71
2023/01/22 06:29:13;;;;;;;1.70;1.17;;;;;;;12.59;50.02;95233.97;4994949;28;20445;-73
2023/01/22 06:31:41;;;;;;;0.00;0.00;;;;;;;12.00;50.94;95238.75;4979888;28;20522;-71
2023/01/22 06:34:13;;;;;;;1.67;1.38;;;;;;;11.47;53.02;95233.66;4989097;28;20585;-72
2023/01/22 06:36:40;;;;;;;0.40;0.40;;;;;;;11.48;53.36;95246.53;5010326;28;20203;-70
2023/01/22 06:39:09;;;;;;;0.20;0.20;;;;;;;12.15;51.36;95247.47;5011265;28;20552;-70
2023/01/22 06:41:54;;;;;;;0.10;0.10;;;;;;;12.20;50.90;95233.56;4981657;28;20241;-69
2023/01/22 06:44:22;;;;;;;1.17;1.07;;;;;;;12.39;50.63;95241.81;4991168;28;21123;-69
2023/01/22 06:46:53;;;;;;;0.13;0.13;;;;;;;12.42;50.63;95247.31;4994452;28;20508;-70
2023/01/22 06:49:25;;;;;;;0.57;0.57;;;;;;;12.48;50.42;95256.03;4983978;28;21036;-71
2023/01/22 06:51:54;;;;;;;0.67;0.60;;;;;;;12.21;51.38;95269.31;4991301;28;20476;-73
2023/01/22 06:54:22;;;;;;;1.87;0.67;;;;;;;11.45;53.26;95267.22;4990281;28;20434;-71
2023/01/22 06:56:48;;;;;;;0.10;0.10;;;;;;;11.00;54.42;95270.28;4989912;28;21136;-70
2023/01/22 06:59:16;;;;;;;0.10;0.10;;;;;;;10.38;55.80;95277.75;4990549;28;21029;-69
2023/01/22 07:01:43;;;;;;;9.70;3.28;;;;;;;11.10;54.90;95281.66;4991652;28;20477;-73
2023/01/22 07:04:10;;;;;;;0.00;0.00;;;;;;;11.44;53.43;95276.94;4991737;28;20198;-71
2023/01/22 07:06:37;;;;;;;0.57;0.40;;;;;;;11.38;53.83;95280.56;4990084;28;20194;-74
2023/01/22 07:09:05;;;;;;;1.43;1.33;;;;;;;11.69;52.91;95279.00;4989682;28;20202;-71
2023/01/22 07:11:32;;;;;;;0.57;0.57;;;;;;;10.62;54.80;95281.66;4986643;28;20915;-71
2023/01/22 07:13:59;;;;;;;0.38;0.38;;;;;;;10.93;54.60;95280.94;4988734;28;20202;-72
2023/01/22 07:16:26;;;;;;;0.00;0.00;;;;;;;11.44;53.32;95276.16;4988018;28;20198;-70
2023/01/22 07:18:53;;;;;;;0.52;0.52;;;;;;;11.23;54.30;95276.00;4985601;28;20197;-71
2023/01/22 07:21:19;;;;;;;0.28;0.28;;;;;;;11.60;53.54;95285.72;4986236;28;20233;-72
2023/01/22 07:23:46;;;;;;;0.40;0.40;;;;;;;10.84;55.54;95287.69;4985074;28;20261;-70
2023/01/22 07:26:14;;;;;;;0.00;0.00;;;;;;;11.70;54.42;95288.44;4987377;28;20202;-72
2023/01/22 07:28:42;;;;;;;0.20;0.20;;;;;;;12.34;52.81;95287.22;4990311;28;20450;-70
2023/01/22 07:31:10;;;;;;;0.30;0.30;;;;;;;12.31;52.74;95287.75;4985731;28;20296;-70
2023/01/22 07:33:37;;;;;;;0.17;0.17;;;;;;;12.55;51.80;95294.16;4991094;28;20532;-72
2023/01/22 07:36:04;;;;;;;3.97;2.93;;;;;;;12.62;51.81;95283.41;4988008;28;20532;-71
2023/01/22 07:38:31;;;;;;;0.82;0.50;;;;;;;11.86;53.34;95290.13;4988928;28;20961;-66
2023/01/22 07:41:00;;;;;;;0.68;0.68;;;;;;;12.17;52.61;95291.91;4988523;28;20222;-66
2023/01/22 07:43:31;;;;;;;3.97;1.80;;;;;;;12.73;51.62;95292.91;4988706;28;20241;-64
2023/01/22 07:46:02;;;;;;;0.10;0.10;;;;;;;12.61;51.76;95287.84;4988291;28;20458;-66
2023/01/22 07:48:29;;;;;;;0.40;0.40;;;;;;;12.76;51.56;95306.31;4987776;28;20546;-68
2023/01/22 07:51:03;;;;;;;0.40;0.40;;;;;;;13.02;51.29;95297.47;4988210;28;20454;-66
2023/01/22 07:53:32;;;;;;;0.20;0.20;;;;;;;13.24;50.39;95297.25;4988861;28;20445;-67
2023/01/22 07:56:02;;;;;;;1.10;1.07;;;;;;;13.25;51.33;95298.06;4986535;28;20542;-66
2023/01/22 07:58:29;;;;;;;2.30;1.70;;;;;;;13.39;50.78;95301.72;4988154;28;20511;-65
2023/01/22 08:00:56;;;;;;;0.20;0.20;;;;;;;13.53;50.79;95311.47;4988110;28;20442;-66
2023/01/22 08:03:23;;;;;;;1.70;0.93;;;;;;;13.56;50.92;95304.88;4987409;28;20473;-66
2023/01/22 08:05:50;;;;;;;2.47;2.27;;;;;;;13.68;50.54;95308.84;4987072;28;20457;-66
2023/01/22 08:08:21;;;;;;;1.60;1.07;;;;;;;13.68;50.21;95318.59;4985817;28;20489;-66
2023/01/22 08:10:48;;;;;;;1.03;1.03;;;;;;;13.51;51.14;95312.78;4986978;28;20442;-66
2023/01/22 08:13:14;;;;;;;4.17;2.90;;;;;;;13.63;50.98;95315.97;4987783;28;20437;-66
2023/01/22 08:15:42;;;;;;;2.27;2.17;;;;;;;13.59;51.07;95320.19;4987530;28;20441;-65
2023/01/22 08:18:10;;;;;;;1.63;1.53;;;;;;;13.56;51.67;95320.69;4988222;28;20535;-67
2023/01/22 08:20:37;;;;;;;1.33;1.10;;;;;;;13.44;51.63;95320.16;4987689;28;20474;-66
2023/01/22 08:23:04;;;;;;;0.40;0.40;;;;;;;13.75;50.98;95319.09;4987896;28;20508;-66
2023/01/22 08:25:31;;;;;;;7.93;4.10;;;;;;;14.00;50.63;95321.72;4987404;28;20438;-65
2023/01/22 08:28:01;;;;;;;4.20;3.47;;;;;;;14.11;50.17;95325.91;4987344;28;20446;-66
2023/01/22 08:30:28;;;;;;;2.43;1.93;;;;;;;14.10;50.28;95327.75;4986220;28;20484;-66
2023/01/22 08:32:55;;;;;;;8.30;2.70;;;;;;;14.15;50.21;95329.59;4987610;28;20472;-66
2023/01/22 08:35:22;;;;;;;1.87;1.77;;;;;;;14.22;50.29;95335.38;4984874;28;20465;-67
2023/01/22 08:37:50;;;;;;;2.13;2.03;;;;;;;14.16;49.95;95326.69;4987166;28;20441;-67
2023/01/22 08:40:17;;;;;;;4.27;2.30;;;;;;;14.35;49.98;95323.53;4986131;28;20445;-67
2023/01/22 08:42:53;;;;;;;4.37;2.30;;;;;;;14.54;49.10;95327.16;4985657;28;20867;-67
2023/01/22 08:45:21;;;;;;;3.93;3.53;;;;;;;14.27;50.03;95330.13;4984938;28;20801;-66
2023/01/22 08:47:47;;;;;;;3.03;2.77;;;;;;;14.23;49.92;95332.47;4986751;28;20979;-66
2023/01/22 08:50:15;;;;;;;4.20;3.83;;;;;;;14.36;50.28;95325.88;4988500;28;20537;-68
2023/01/22 08:52:42;;;;;;;2.47;2.27;;;;;;;14.34;50.32;95322.75;4989720;28;20438;-68
2023/01/22 08:55:09;;;;;;;0.83;0.83;;;;;;;14.25;49.88;95330.38;4991061;28;20953;-70
2023/01/22 08:57:36;;;;;;;0.90;0.90;;;;;;;14.51;49.81;95323.22;4991721;28;20527;-73
2023/01/22 09:00:04;;;;;;;4.13;2.27;;;;;;;14.59;49.86;95329.78;4995480;28;20868;-72
2023/01/22 09:02:32;;;;;;;3.50;1.47;;;;;;;14.73;50.05;95326.28;4988490;28;20586;-70
2023/01/22 09:04:59;;;;;;;3.27;1.50;;;;;;;14.86;49.45;95330.19;4987165;28;20442;-69
2023/01/22 09:07:25;;;;;;;9.27;3.17;;;;;;;14.94;49.57;95322.50;4987124;28;20932;-65
2023/01/22 09:09:52;;;;;;;1.50;1.40;;;;;;;15.09;49.91;95324.28;4986554;28;20442;-66
2023/01/22 09:12:19;;;;;;;3.80;1.13;;;;;;;14.89;48.86;95330.44;4987043;28;20863;-66
2023/01/22 09:14:46;;;;;;;1.53;1.10;;;;;;;15.23;48.43;95320.78;4987777;28;20470;-75
2023/01/22 09:17:13;;;;;;;0.60;0.60;;;;;;;15.44;48.02;95324.06;4988993;28;20478;-71
2023/01/22 09:19:39;;;;;;;5.00;2.37;;;;;;;15.51;48.51;95321.13;4988048;28;20811;-72
2023/01/22 09:22:06;;;;;;;6.83;2.80;;;;;;;15.45;48.21;95323.03;4987089;28;20536;-71
2023/01/22 09:24:33;;;;;;;1.07;1.03;;;;;;;15.35;49.03;95322.25;4987454;28;20492;-69
2023/01/22 09:27:00;;;;;;;0.77;0.77;;;;;;;15.24;48.45;95321.53;4987162;28;20469;-69
2023/01/22 09:29:27;;;;;;;4.60;3.57;;;;;;;15.02;49.14;95327.22;4986913;28;20526;-65
2023/01/22 09:31:55;;;;;;;0.73;0.73;;;;;;;15.35;49.05;95322.25;4986572;28;20472;-65
2023/01/22 09:34:22;;;;;;;2.70;1.57;;;;;;;15.22;48.94;95313.91;4986957;28;20445;-70
2023/01/22 09:36:49;;;;;;;2.50;2.13;;;;;;;15.48;48.13;95316.38;4986743;28;20441;-69
2023/01/22 09:39:16;;;;;;;0.47;0.47;;;;;;;15.62;48.09;95320.00;4987347;28;20457;-69
2023/01/22 09:41:47;;;;;;;1.60;1.50;;;;;;;15.53;48.02;95303.16;4986794;28;20570;-69
2023/01/22 09:44:19;;;;;;;1.07;0.60;;;;;;;15.55;48.94;95316.88;4988171;28;20466;-69
2023/01/22 09:47:06;;;;;;;1.23;1.20;;;;;;;15.45;48.92;95316.94;4988706;28;20450;-69
2023/01/22 09:49:59;;;;;;;1.30;1.30;;;;;;;15.81;48.43;95312.97;4987107;28;20445;-67
2023/01/22 09:52:32;;;;;;;2.53;2.17;;;;;;;15.56;48.61;95321.09;4986824;28;20450;-69
2023/01/22 09:54:59;;;;;;;1.17;1.10;;;;;;;15.87;48.00;95319.78;4986686;28;20541;-67
2023/01/22 09:57:26;;;;;;;0.43;0.43;;;;;;;15.79;48.17;95323.81;4989322;28;20449;-66
2023/01/22 09:59:58;;;;;;;2.23;1.73;;;;;;;15.72;48.85;95317.28;4990130;28;20454;-67
2023/01/22 10:02:29;;;;;;;2.93;2.17;;;;;;;15.93;48.83;95319.47;4990734;28;20469;-64
2023/01/22 10:05:15;;;;;;;1.30;1.20;;;;;;;16.07;48.67;95309.84;4990313;28;20470;-65
2023/01/22 10:07:54;;;;;;;2.20;2.00;;;;;;;16.19;47.60;95315.53;4991242;28;20818;-69
2023/01/22 10:10:26;;;;;;;8.70;1.43;;;;;;;16.06;47.88;95313.53;4990604;28;20481;-71
2023/01/22 10:13:00;;;;;;;1.40;1.23;;;;;;;16.07;48.05;95314.31;4988309;28;20441;-70
2023/01/22 10:15:27;;;;;;;0.70;0.70;;;;;;;15.83;47.93;95318.75;4990222;28;20544;-66
2023/01/22 10:17:56;;;;;;;2.03;1.83;;;;;;;16.26;47.62;95319.69;4990668;28;20464;-70
2023/01/22 10:20:25;;;;;;;0.50;0.50;;;;;;;16.24;47.17;95304.88;4989960;28;20485;-71
2023/01/22 10:22:54;;;;;;;2.37;1.77;;;;;;;16.48;47.12;95314.69;4990732;28;20543;-70
2023/01/22 10:25:21;;;;;;;1.70;1.60;;;;;;;16.42;46.48;95316.63;4989822;28;20536;-65
2023/01/22 10:27:58;;;;;;;0.87;0.80;;;;;;;16.20;47.09;95311.03;4988275;28;20803;-69
2023/01/22 10:30:26;;;;;;;8.67;1.90;;;;;;;16.35;47.88;95310.09;4990164;28;21055;-72
2023/01/22 10:33:02;;;;;;;0.33;0.33;;;;;;;16.55;46.56;95310.66;4989849;28;20499;-71
2023/01/22 10:35:30;;;;;;;2.40;1.00;;;;;;;16.24;47.05;95309.38;4988299;28;20448;-66
2023/01/22 10:37:59;;;;;;;1.63;1.53;;;;;;;16.29;46.75;95317.28;4990366;28;20434;-69
2023/01/22 10:40:36;;;;;;;1.40;0.93;;;;;;;16.26;47.17;95312.53;4988327;28;20556;-63
2023/01/22 10:43:08;;;;;;;4.90;2.27;;;;;;;15.97;47.37;95314.41;4988894;28;20477;-69
2023/01/22 10:45:36;;;;;;;4.33;1.83;;;;;;;15.20;49.36;95321.28;4988832;28;20949;-66
2023/01/22 10:48:11;;;;;;;2.03;1.27;;;;;;;15.89;48.05;95310.50;4989827;28;20928;-67
2023/01/22 10:50:39;;;;;;;0.33;0.33;;;;;;;15.62;48.61;95304.16;4987413;28;20445;-65
2023/01/22 10:53:33;;;;;;;0.00;0.00;;;;;;;16.04;47.24;95304.28;4988415;28;20452;-67
2023/01/22 10:56:03;;;;;;;3.70;1.37;;;;;;;15.57;48.73;95309.44;4987567;28;20580;-65
2023/01/22 10:58:33;;;;;;;3.27;2.97;;;;;;;15.45;48.73;95315.09;4989059;28;20786;-67
2023/01/22 11:01:20;;;;;;;0.40;0.40;;;;;;;15.42;49.20;95307.72;4986639;28;20529;-64
2023/01/22 11:03:47;;;;;;;1.40;1.30;;;;;;;15.89;47.92;95307.09;4988124;28;20536;-66
2023/01/22 11:06:19;;;;;;;1.57;1.47;;;;;;;15.72;47.89;95294.28;4988968;28;20446;-66
2023/01/22 11:08:59;;;;;;;2.87;1.70;;;;;;;16.28;47.45;95310.41;4988618;28;20449;-66
2023/01/22 11:11:40;;;;;;;0.80;0.80;;;;;;;16.43;47.57;95302.31;4989608;28;20449;-69
2023/01/22 11:14:19;;;;;;;0.70;0.70;;;;;;;16.33;47.92;95299.75;4987777;28;20543;-66
2023/01/22 11:16:50;;;;;;;4.83;1.07;;;;;;;16.92;47.48;95315.25;4989096;28;20506;-64
2023/01/22 11:19:21;;;;;;;2.97;2.00;;;;;;;17.18;46.95;95306.69;4989385;28;21003;-66
2023/01/22 11:22:13;;;;;;;0.27;0.27;;;;;;;17.40;46.00;95305.31;4989695;28;20573;-65
2023/01/22 11:24:46;;;;;;;0.60;0.60;;;;;;;17.67;46.31;95305.47;4988890;28;20450;-65
2023/01/22 11:27:21;;;;;;;0.67;0.67;;;;;;;17.46;45.59;95304.97;4989079;28;20487;-64
2023/01/22 11:29:54;;;;;;;0.83;0.83;;;;;;;17.59;45.23;95301.59;4988853;28;20576;-64
2023/01/22 11:32:51;;;;;;;3.90;1.73;;;;;;;17.75;45.50;95299.50;4986114;28;20974;-64
2023/01/22 11:35:46;;;;;;;0.57;0.57;;;;;;;18.19;43.50;95297.94;4988908;28;20474;-66
2023/01/22 11:38:32;;;;;;;0.63;0.63;;;;;;;18.20;43.92;95293.41;4988782;28;20979;-64
2023/01/22 11:41:15;;;;;;;2.30;2.10;;;;;;;17.64;42.56;95301.53;4987438;28;20844;-65
2023/01/22 11:44:05;;;;;;;7.30;3.27;;;;;;;17.96;42.82;95303.38;4988033;28;20559;-65
2023/01/22 11:46:42;;;;;;;3.50;1.40;;;;;;;18.37;43.03;95298.94;4987518;28;21033;-65
2023/01/22 11:49:21;;;;;;;1.17;0.83;;;;;;;18.13;42.32;95301.75;4986546;28;20484;-67
2023/01/22 11:51:50;;;;;;;1.07;0.97;;;;;;;18.48;42.25;95295.06;4986583;28;20456;-65
2023/01/22 11:54:24;;;;;;;0.33;0.33;;;;;;;18.11;41.33;95303.13;4988218;28;20500;-66
2023/01/22 11:57:01;;;;;;;4.73;0.33;;;;;;;18.47;41.38;95298.78;4988471;28;21370;-65